createdAt,value
2022-12-18T00:01:52.306Z,99470.63
2022-12-18T00:04:23.002Z,99473.19
2022-12-18T00:06:50.337Z,99481.22
2022-12-18T00:09:18.177Z,99492.97
2022-12-18T00:11:45.177Z,99482.38
2022-12-18T00:14:13.203Z,99496.66
2022-12-18T00:16:40.862Z,99506.28
2022-12-18T00:19:11.098Z,99503.63
2022-12-18T00:21:41.477Z,99514.97
2022-12-18T00:24:09.929Z,99511.34
2022-12-18T00:26:38.820Z,99520.34
2022-12-18T00:29:07.437Z,99519.91
2022-12-18T00:31:34.786Z,99528.53
2022-12-18T00:34:02.136Z,99537.19
2022-12-18T00:36:32.057Z,99527.28
2022-12-18T00:39:00.576Z,99531.94
2022-12-18T00:41:46.389Z,99537.56
2022-12-18T00:44:14.041Z,99543.19
2022-12-18T00:46:41.383Z,99538.41
2022-12-18T00:49:08.679Z,99548.22
2022-12-18T00:51:40.448Z,99551.09
2022-12-18T00:54:07.393Z,99550.63
2022-12-18T00:56:39.371Z,99542.16
2022-12-18T00:59:12.860Z,99541.38
2022-12-18T01:01:40.050Z,99542.16
2022-12-18T01:04:07.416Z,99540.44
2022-12-18T01:06:36.461Z,99541.09
2022-12-18T01:09:05.294Z,99540.31
2022-12-18T01:11:32.515Z,99549.91
2022-12-18T01:14:02.537Z,99558.91
2022-12-18T01:16:29.599Z,99557.31
2022-12-18T01:18:57.522Z,99565.50
2022-12-18T01:21:25.158Z,99562.66
2022-12-18T01:23:53.792Z,99566.34
2022-12-18T01:26:22.560Z,99562.53
2022-12-18T01:28:51.213Z,99566.34
2022-12-18T01:31:21.100Z,99582.03
2022-12-18T01:33:52.147Z,99590.66
2022-12-18T01:36:21.437Z,99589.38
2022-12-18T01:38:49.004Z,99587.63
2022-12-18T01:41:17.712Z,99590.97
2022-12-18T01:43:49.476Z,99597.69
2022-12-18T01:46:17.883Z,99595.31
2022-12-18T01:48:46.180Z,99586.66
2022-12-18T01:51:13.768Z,99601.69
2022-12-18T01:53:44.056Z,99595.28
2022-12-18T01:56:15.660Z,99601.03
2022-12-18T01:58:48.724Z,99597.34
2022-12-18T02:01:15.912Z,99597.03
2022-12-18T02:03:44.235Z,99604.53
2022-12-18T02:06:16.045Z,99620.47
2022-12-18T02:08:53.197Z,99620.50
2022-12-18T02:11:30.605Z,99616.69
2022-12-18T02:14:07.196Z,99619.75
2022-12-18T02:16:44.487Z,99627.72
2022-12-18T02:19:21.942Z,99627.56
2022-12-18T02:21:58.497Z,99641.63
2022-12-18T02:24:34.708Z,99641.31
2022-12-18T02:27:05.957Z,99640.03
2022-12-18T02:29:38.598Z,99634.63
2022-12-18T02:32:10.307Z,99636.22
2022-12-18T02:34:40.638Z,99642.44
2022-12-18T02:37:14.848Z,99637.47
2022-12-18T02:39:44.344Z,99643.88
2022-12-18T02:42:15.465Z,99645.00
2022-12-18T02:44:46.848Z,99634.28
2022-12-18T02:47:18.589Z,99633.63
2022-12-18T02:49:53.667Z,99637.94
2022-12-18T02:52:26.125Z,99648.69
2022-12-18T02:55:01.158Z,99637.97
2022-12-18T02:57:38.438Z,99654.06
2022-12-18T03:00:09.528Z,99650.09
2022-12-18T03:02:45.730Z,99659.34
2022-12-18T03:05:14.200Z,99659.66
2022-12-18T03:07:47.448Z,99663.47
2022-12-18T03:10:20.530Z,99656.63
2022-12-18T03:12:53.539Z,99671.13
2022-12-18T03:15:25.990Z,99666.84
2022-12-18T03:18:04.684Z,99670.66
2022-12-18T03:20:35.190Z,99666.81
2022-12-18T03:23:07.503Z,99658.84
2022-12-18T03:25:38.794Z,99663.94
2022-12-18T03:28:09.914Z,99680.38
2022-12-18T03:30:39.871Z,99690.75
2022-12-18T03:33:09.932Z,99686.59
2022-12-18T03:35:42.690Z,99688.00
2022-12-18T03:38:11.968Z,99690.53
2022-12-18T03:40:56.829Z,99694.88
2022-12-18T03:43:36.667Z,99700.91
2022-12-18T03:46:09.143Z,99706.19
2022-12-18T03:48:42.782Z,99718.78
2022-12-18T03:51:15.476Z,99718.16
2022-12-18T03:53:47.317Z,99726.41
2022-12-18T03:56:17.113Z,99723.09
2022-12-18T03:58:46.754Z,99726.56
2022-12-18T04:01:23.547Z,99723.69
2022-12-18T04:03:51.896Z,99725.25
2022-12-18T04:06:21.013Z,99737.06
2022-12-18T04:08:48.415Z,99735.63
2022-12-18T04:11:18.739Z,99741.69
2022-12-18T04:13:49.094Z,99748.53
2022-12-18T04:16:25.611Z,99748.53
2022-12-18T04:18:56.072Z,99750.25
2022-12-18T04:21:25.185Z,99762.25
2022-12-18T04:23:53.079Z,99770.03
2022-12-18T04:26:22.740Z,99768.72
2022-12-18T04:29:13.704Z,99772.22
2022-12-18T04:31:40.762Z,99765.53
2022-12-18T04:34:07.840Z,99770.63
2022-12-18T04:36:40.800Z,99774.00
2022-12-18T04:39:08.124Z,99783.25
2022-12-18T04:41:35.132Z,99780.84
2022-12-18T04:44:03.424Z,99787.97
2022-12-18T04:46:31.898Z,99792.44
2022-12-18T04:48:58.888Z,99792.75
2022-12-18T04:51:26.806Z,99791.16
2022-12-18T04:53:54.212Z,99803.75
2022-12-18T04:56:21.222Z,99799.28
2022-12-18T04:58:48.194Z,99803.94
2022-12-18T05:01:17.362Z,99807.47
2022-12-18T05:03:46.235Z,99818.75
2022-12-18T05:06:13.628Z,99823.69
2022-12-18T05:08:40.725Z,99823.69
2022-12-18T05:11:10.328Z,99833.13
2022-12-18T05:13:39.184Z,99834.22
2022-12-18T05:16:07.612Z,99825.75
2022-12-18T05:18:35.329Z,99830.06
2022-12-18T05:21:04.324Z,99840.16
2022-12-18T05:23:31.668Z,99847.72
2022-12-18T05:26:03.801Z,99848.13
2022-12-18T05:28:32.949Z,99855.09
2022-12-18T05:31:01.791Z,99861.59
2022-12-18T05:33:31.331Z,99864.28
2022-12-18T05:36:04.000Z,99866.63
2022-12-18T05:38:34.143Z,99866.91
2022-12-18T05:41:01.213Z,99870.56
2022-12-18T05:43:29.104Z,99882.03
2022-12-18T05:45:58.234Z,99882.75
2022-12-18T05:48:25.424Z,99892.59
2022-12-18T05:50:52.820Z,99892.09
2022-12-18T05:53:21.524Z,99893.47
2022-12-18T05:55:50.435Z,99893.63
2022-12-18T05:58:17.393Z,99901.28
2022-12-18T06:00:46.580Z,99904.09
2022-12-18T06:03:14.507Z,99915.41
2022-12-18T06:05:43.609Z,99919.34
2022-12-18T06:08:11.648Z,99913.28
2022-12-18T06:10:38.956Z,99925.88
2022-12-18T06:13:08.227Z,99925.88
2022-12-18T06:15:38.089Z,99928.28
2022-12-18T06:18:05.206Z,99925.91
2022-12-18T06:20:33.823Z,99935.00
2022-12-18T06:23:01.143Z,99940.03
2022-12-18T06:25:28.248Z,99939.91
2022-12-18T06:27:55.285Z,99937.19
2022-12-18T06:30:24.304Z,99942.22
2022-12-18T06:32:56.297Z,99943.75
2022-12-18T06:35:24.752Z,99959.47
2022-12-18T06:37:51.949Z,99954.81
2022-12-18T06:40:19.499Z,99962.78
2022-12-18T06:42:46.482Z,99966.53
2022-12-18T06:45:16.781Z,99973.69
2022-12-18T06:47:45.165Z,99979.38
2022-12-18T06:50:12.623Z,99973.75
2022-12-18T06:52:41.236Z,99973.47
2022-12-18T06:55:12.306Z,99979.53
2022-12-18T06:57:39.524Z,99995.03
2022-12-18T07:00:07.930Z,99992.41
2022-12-18T07:02:35.236Z,99997.53
2022-12-18T07:05:10.270Z,100006.38
2022-12-18T07:07:38.361Z,100009.88
2022-12-18T07:10:06.133Z,100012.28
2022-12-18T07:12:33.694Z,100019.78
2022-12-18T07:15:00.659Z,100029.03
2022-12-18T07:17:27.673Z,100036.41
2022-12-18T07:19:57.880Z,100027.38
2022-12-18T07:22:27.729Z,100042.03
2022-12-18T07:24:54.680Z,100035.69
2022-12-18T07:27:21.765Z,100038.75
2022-12-18T07:29:48.761Z,100041.13
2022-12-18T07:32:15.837Z,100037.47
2022-12-18T07:34:42.789Z,100042.13
2022-12-18T07:37:09.756Z,100041.69
2022-12-18T07:39:38.084Z,100044.41
2022-12-18T07:42:23.789Z,100045.47
2022-12-18T07:44:52.011Z,100052.56
2022-12-18T07:47:19.252Z,100046.88
2022-12-18T07:49:46.153Z,100061.44
2022-12-18T07:52:13.513Z,100059.41
2022-12-18T07:54:42.300Z,100060.22
2022-12-18T07:57:33.728Z,100058.31
2022-12-18T07:59:56.849Z,100067.34
2022-12-18T08:02:24.078Z,100073.91
2022-12-18T08:04:51.097Z,100070.44
2022-12-18T08:07:18.052Z,100073.91
2022-12-18T08:09:46.425Z,100083.06
2022-12-18T08:12:13.458Z,100078.59
2022-12-18T08:14:40.656Z,100080.41
2022-12-18T08:17:07.733Z,100085.59
2022-12-18T08:19:34.728Z,100093.63
2022-12-18T08:22:01.694Z,100085.06
2022-12-18T08:24:28.863Z,100082.50
2022-12-18T08:27:27.739Z,100075.47
2022-12-18T08:29:45.146Z,100080.91
2022-12-18T08:32:12.238Z,100086.78
2022-12-18T08:34:39.693Z,100084.38
2022-12-18T08:37:06.601Z,100085.47
2022-12-18T08:39:33.750Z,100081.38
2022-12-18T08:42:20.792Z,100076.34
2022-12-18T08:44:47.891Z,100068.59
2022-12-18T08:47:15.050Z,100071.00
2022-12-18T08:49:42.091Z,100073.25
2022-12-18T08:52:09.916Z,100071.97
2022-12-18T08:54:36.863Z,100073.69
2022-12-18T08:57:05.212Z,100071.00
2022-12-18T08:59:32.427Z,100077.94
2022-12-18T09:01:59.484Z,100074.13
2022-12-18T09:04:26.489Z,100071.44
2022-12-18T09:06:53.438Z,100078.41
2022-12-18T09:09:23.122Z,100086.31
2022-12-18T09:11:50.176Z,100081.78
2022-12-18T09:14:18.493Z,100090.06
2022-12-18T09:16:45.660Z,100080.63
2022-12-18T09:19:12.733Z,100086.13
2022-12-18T09:21:42.214Z,100083.75
2022-12-18T09:24:14.532Z,100082.06
2022-12-18T09:26:41.617Z,100090.16
2022-12-18T09:29:10.676Z,100084.97
2022-12-18T09:31:39.786Z,100083.25
2022-12-18T09:34:07.029Z,100078.34
2022-12-18T09:36:34.253Z,100077.13
2022-12-18T09:39:06.312Z,100076.16
2022-12-18T09:41:45.364Z,100079.38
2022-12-18T09:44:19.583Z,100078.13
2022-12-18T09:46:54.958Z,100078.75
2022-12-18T09:49:24.110Z,100070.47
2022-12-18T09:51:54.120Z,100075.34
2022-12-18T09:54:24.968Z,100071.00
2022-12-18T09:56:53.251Z,100078.25
2022-12-18T09:59:32.191Z,100084.41
2022-12-18T10:02:00.702Z,100081.63
2022-12-18T10:04:32.404Z,100081.25
2022-12-18T10:07:09.433Z,100083.19
2022-12-18T10:09:42.904Z,100087.63
2022-12-18T10:12:18.719Z,100081.41
2022-12-18T10:14:52.884Z,100078.38
2022-12-18T10:17:29.257Z,100086.97
2022-12-18T10:20:00.652Z,100077.13
2022-12-18T10:22:45.346Z,100074.13
2022-12-18T10:25:22.734Z,100086.94
2022-12-18T10:27:53.748Z,100080.59
2022-12-18T10:30:25.117Z,100086.88
2022-12-18T10:32:53.908Z,100085.19
2022-12-18T10:35:22.778Z,100088.09
2022-12-18T10:38:05.439Z,100100.72
2022-12-18T10:40:32.737Z,100099.13
2022-12-18T10:43:12.025Z,100104.50
2022-12-18T10:45:39.421Z,100110.13
2022-12-18T10:48:19.653Z,100113.53
2022-12-18T10:53:38.607Z,100119.91
2022-12-18T10:56:08.141Z,100113.38
2022-12-18T10:58:36.665Z,100112.56
2022-12-18T11:01:07.761Z,100122.03
2022-12-18T11:03:38.014Z,100126.19
2022-12-18T11:06:08.508Z,100125.03
2022-12-18T11:08:35.600Z,100124.75
2022-12-18T11:11:03.150Z,100133.41
2022-12-18T11:13:32.484Z,100142.22
2022-12-18T11:16:00.615Z,100140.66
2022-12-18T11:18:30.978Z,100139.41
2022-12-18T11:21:07.368Z,100131.59
2022-12-18T11:23:35.469Z,100135.97
2022-12-18T11:26:04.545Z,100134.47
2022-12-18T11:28:39.798Z,100133.53
2022-12-18T11:31:21.128Z,100143.50
2022-12-18T11:34:27.046Z,100135.03
2022-12-18T11:36:45.657Z,100144.81
2022-12-18T11:39:18.649Z,100136.31
2022-12-18T11:42:10.125Z,100135.69
2022-12-18T11:44:42.702Z,100141.28
2022-12-18T11:47:20.656Z,100135.03
2022-12-18T11:49:50.771Z,100133.53
2022-12-18T11:52:22.314Z,100128.41
2022-12-18T11:54:53.859Z,100124.53
2022-12-18T11:57:36.343Z,100138.63
2022-12-18T12:00:12.986Z,100139.44
2022-12-18T12:03:12.616Z,100129.22
2022-12-18T12:05:49.411Z,100125.75
2022-12-18T12:08:25.716Z,100122.22
2022-12-18T12:11:01.913Z,100136.53
2022-12-18T12:13:40.771Z,100129.19
2022-12-18T12:16:17.133Z,100133.53
2022-12-18T12:19:02.908Z,100140.56
2022-12-18T12:21:35.587Z,100138.78
2022-12-18T12:24:18.030Z,100137.78
2022-12-18T12:26:53.542Z,100149.16
2022-12-18T12:29:38.198Z,100137.94
2022-12-18T12:32:27.146Z,100128.31
2022-12-18T12:35:10.163Z,100128.78
2022-12-18T12:37:48.788Z,100140.59
2022-12-18T12:40:50.240Z,100142.69
2022-12-18T12:43:21.421Z,100145.88
2022-12-18T12:45:54.461Z,100142.53
2022-12-18T12:48:40.408Z,100145.25
2022-12-18T12:51:14.936Z,100138.56
2022-12-18T12:53:43.270Z,100158.06
2022-12-18T12:56:15.758Z,100153.91
2022-12-18T12:58:52.900Z,100155.03
2022-12-18T13:01:29.960Z,100156.00
2022-12-18T13:04:10.015Z,100156.94
2022-12-18T13:06:44.959Z,100161.59
2022-12-18T13:09:13.415Z,100163.47
2022-12-18T13:12:02.864Z,100167.91
2022-12-18T13:14:32.835Z,100171.91
2022-12-18T13:17:28.552Z,100180.84
2022-12-18T13:20:09.129Z,100180.16
2022-12-18T13:22:38.978Z,100191.66
2022-12-18T13:25:31.746Z,100193.84
2022-12-18T13:28:05.118Z,100203.44
2022-12-18T13:30:57.466Z,100204.22
2022-12-18T13:34:24.667Z,100211.13
2022-12-18T13:36:36.303Z,100206.16
2022-12-18T13:39:28.934Z,100211.72
2022-12-18T13:42:55.847Z,100222.25
2022-12-18T13:45:43.606Z,100233.56
2022-12-18T13:48:18.411Z,100229.72
2022-12-18T13:51:02.945Z,100242.81
2022-12-18T13:53:35.186Z,100246.75
2022-12-18T13:56:04.737Z,100256.31
2022-12-18T13:58:32.476Z,100241.28
2022-12-18T14:01:03.080Z,100254.19
2022-12-18T14:03:31.625Z,100248.16
2022-12-18T14:06:05.794Z,100250.84
2022-12-18T14:08:40.552Z,100247.16
2022-12-18T14:11:12.198Z,100242.31
2022-12-18T14:13:42.839Z,100250.44
2022-12-18T14:16:16.575Z,100259.06
2022-12-18T14:18:47.254Z,100257.44
2022-12-18T14:21:21.851Z,100261.75
2022-12-18T14:23:49.098Z,100260.94
2022-12-18T14:26:26.360Z,100260.31
2022-12-18T14:28:54.878Z,100255.19
2022-12-18T14:31:25.227Z,100262.88
2022-12-18T14:33:53.435Z,100273.88
2022-12-18T14:36:23.450Z,100273.22
2022-12-18T14:38:52.034Z,100279.28
2022-12-18T14:41:23.238Z,100282.63
2022-12-18T14:43:52.112Z,100286.16
2022-12-18T14:46:36.475Z,100288.84
2022-12-18T14:49:05.654Z,100288.84
2022-12-18T14:51:35.071Z,100292.47
2022-12-18T14:54:04.212Z,100299.34
2022-12-18T14:56:34.681Z,100302.84
2022-12-18T14:59:04.615Z,100291.00
2022-12-18T15:01:36.246Z,100300.44
2022-12-18T15:04:05.342Z,100296.25
2022-12-18T15:06:35.669Z,100306.59
2022-12-18T15:09:21.346Z,100301.69
2022-12-18T15:11:48.510Z,100309.34
2022-12-18T15:14:35.886Z,100321.72
2022-12-18T15:17:07.300Z,100326.84
2022-12-18T15:19:39.090Z,100324.56
2022-12-18T15:22:24.709Z,100324.84
2022-12-18T15:24:52.711Z,100330.09
2022-12-18T15:27:25.369Z,100331.19
2022-12-18T15:30:17.730Z,100329.59
2022-12-18T15:32:47.196Z,100337.53
2022-12-18T15:35:17.323Z,100341.34
2022-12-18T15:37:45.305Z,100337.97
2022-12-18T15:40:16.065Z,100343.06
2022-12-18T15:43:03.591Z,100355.34
2022-12-18T15:45:30.697Z,100351.31
2022-12-18T15:47:59.275Z,100355.09
2022-12-18T15:50:26.552Z,100363.84
2022-12-18T15:52:56.410Z,100354.72
2022-12-18T15:55:43.589Z,100359.00
2022-12-18T15:58:12.863Z,100356.75
2022-12-18T16:00:41.593Z,100367.78
2022-12-18T16:03:11.033Z,100371.13
2022-12-18T16:05:38.230Z,100379.06
2022-12-18T16:08:05.253Z,100377.44
2022-12-18T16:10:32.330Z,100379.09
2022-12-18T16:12:59.489Z,100374.84
2022-12-18T16:15:26.492Z,100374.88
2022-12-18T16:17:53.653Z,100377.69
2022-12-18T16:20:23.251Z,100380.13
2022-12-18T16:22:51.026Z,100379.97
2022-12-18T16:25:23.368Z,100384.28
2022-12-18T16:27:50.686Z,100381.19
2022-12-18T16:30:20.854Z,100390.75
2022-12-18T16:32:47.992Z,100391.28
2022-12-18T16:35:16.575Z,100396.00
2022-12-18T16:37:45.191Z,100400.44
2022-12-18T16:40:14.707Z,100406.34
2022-12-18T16:42:43.402Z,100400.56
2022-12-18T16:45:12.426Z,100410.25
2022-12-18T16:47:39.736Z,100414.41
2022-12-18T16:50:08.369Z,100426.22
2022-12-18T16:52:35.994Z,100425.25
2022-12-18T16:55:05.636Z,100422.44
2022-12-18T16:57:32.745Z,100427.28
2022-12-18T17:00:04.764Z,100419.34
2022-12-18T17:02:32.866Z,100416.94
2022-12-18T17:05:00.117Z,100423.13
2022-12-18T17:07:28.378Z,100434.94
2022-12-18T17:09:59.052Z,100443.25
2022-12-18T17:12:27.489Z,100437.47
2022-12-18T17:14:54.464Z,100441.63
2022-12-18T17:17:23.365Z,100453.34
2022-12-18T17:19:52.448Z,100460.84
2022-12-18T17:22:19.496Z,100459.22
2022-12-18T17:24:47.205Z,100461.78
2022-12-18T17:27:14.265Z,100465.16
2022-12-18T17:29:47.373Z,100470.94
2022-12-18T17:32:15.952Z,100477.63
2022-12-18T17:34:42.959Z,100476.03
2022-12-18T17:37:10.180Z,100479.50
2022-12-18T17:39:37.403Z,100476.16
2022-12-18T17:42:05.231Z,100479.50
2022-12-18T17:44:34.447Z,100490.78
2022-12-18T17:47:04.207Z,100490.13
2022-12-18T17:49:31.728Z,100496.03
2022-12-18T17:51:58.795Z,100489.31
2022-12-18T17:54:25.759Z,100494.28
2022-12-18T17:56:52.771Z,100495.91
2022-12-18T17:59:19.698Z,100493.47
2022-12-18T18:01:46.942Z,100498.72
2022-12-18T18:04:15.816Z,100509.88
2022-12-18T18:06:43.199Z,100501.13
2022-12-18T18:09:16.473Z,100502.88
2022-12-18T18:12:02.956Z,100501.28
2022-12-18T18:14:30.260Z,100515.78
2022-12-18T18:16:57.361Z,100508.28
2022-12-18T18:19:34.151Z,100512.56
2022-12-18T18:22:02.147Z,100517.91
2022-12-18T18:24:30.419Z,100532.03
2022-12-18T18:26:59.636Z,100534.19
2022-12-18T18:29:28.991Z,100531.34
2022-12-18T18:31:56.537Z,100535.34
2022-12-18T18:34:25.299Z,100545.56
2022-12-18T18:36:53.982Z,100545.69
2022-12-18T18:39:25.881Z,100552.56
2022-12-18T18:41:53.078Z,100546.13
2022-12-18T18:44:21.925Z,100554.69
2022-12-18T18:46:54.726Z,100550.53
2022-12-18T18:49:24.329Z,100554.69
2022-12-18T18:51:53.352Z,100563.03
2022-12-18T18:54:21.342Z,100564.63
2022-12-18T18:57:19.320Z,100568.38
2022-12-18T18:59:36.509Z,100571.44
2022-12-18T19:02:04.755Z,100573.34
2022-12-18T19:04:33.326Z,100574.53
2022-12-18T19:07:01.711Z,100582.31
2022-12-18T19:09:29.466Z,100578.28
2022-12-18T19:12:15.267Z,100584.44
2022-12-18T19:14:45.200Z,100581.34
2022-12-18T19:17:12.255Z,100585.63
2022-12-18T19:19:39.661Z,100588.31
2022-12-18T19:22:09.423Z,100590.34
2022-12-18T19:24:36.713Z,100593.25
2022-12-18T19:27:04.001Z,100586.41
2022-12-18T19:29:30.995Z,100589.78
2022-12-18T19:31:57.953Z,100593.25
2022-12-18T19:34:25.240Z,100595.13
2022-12-18T19:36:57.922Z,100597.25
2022-12-18T19:39:28.020Z,100606.91
2022-12-18T19:41:54.988Z,100614.66
2022-12-18T19:44:22.216Z,100603.00
2022-12-18T19:46:51.521Z,100612.13
2022-12-18T19:49:18.534Z,100616.03
2022-12-18T19:51:49.889Z,100609.06
2022-12-18T19:54:17.908Z,100614.97
2022-12-18T19:56:46.927Z,100623.41
2022-12-18T19:59:14.061Z,100621.56
2022-12-18T20:01:41.101Z,100621.44
2022-12-18T20:04:08.385Z,100628.00
2022-12-18T20:06:46.169Z,100630.31
2022-12-18T20:09:13.144Z,100629.75
2022-12-18T20:11:41.910Z,100642.78
2022-12-18T20:14:11.513Z,100647.31
2022-12-18T20:16:38.753Z,100651.97
2022-12-18T20:19:06.117Z,100652.47
2022-12-18T20:21:33.880Z,100652.72
2022-12-18T20:24:02.080Z,100652.16
2022-12-18T20:26:29.354Z,100652.56
2022-12-18T20:28:56.681Z,100660.56
2022-12-18T20:31:25.294Z,100651.00
2022-12-18T20:33:54.479Z,100644.78
2022-12-18T20:36:26.890Z,100645.53
2022-12-18T20:38:57.246Z,100648.47
2022-12-18T20:41:28.182Z,100657.97
2022-12-18T20:44:03.105Z,100659.69
2022-12-18T20:46:31.541Z,100663.41
2022-12-18T20:48:58.543Z,100663.41
2022-12-18T20:51:28.016Z,100662.63
2022-12-18T20:53:55.277Z,100669.44
2022-12-18T20:56:23.820Z,100672.13
2022-12-18T20:58:55.093Z,100674.53
2022-12-18T21:01:23.464Z,100678.69
2022-12-18T21:03:52.714Z,100683.13
2022-12-18T21:06:21.930Z,100680.69
2022-12-18T21:08:49.378Z,100682.44
2022-12-18T21:11:44.764Z,100684.97
2022-12-18T21:14:13.661Z,100688.56
2022-12-18T21:16:42.992Z,100689.06
2022-12-18T21:19:12.925Z,100689.28
2022-12-18T21:21:40.393Z,100694.50
2022-12-18T21:24:08.480Z,100705.84
2022-12-18T21:26:39.240Z,100700.31
2022-12-18T21:29:12.919Z,100704.59
2022-12-18T21:31:40.570Z,100708.19
2022-12-18T21:34:08.566Z,100708.66
2022-12-18T21:36:36.933Z,100704.75
2022-12-18T21:39:03.949Z,100710.88
2022-12-18T21:41:49.071Z,100708.81
2022-12-18T21:44:18.776Z,100713.31
2022-12-18T21:46:52.977Z,100716.13
2022-12-18T21:49:22.906Z,100717.25
2022-12-18T21:51:53.245Z,100719.00
2022-12-18T21:54:20.841Z,100708.94
2022-12-18T21:56:49.516Z,100708.94
2022-12-18T21:59:18.120Z,100716.69
2022-12-18T22:01:45.657Z,100711.63
2022-12-18T22:04:13.206Z,100714.03
2022-12-18T22:06:41.343Z,100713.69
2022-12-18T22:09:11.132Z,100717.72
2022-12-18T22:11:38.426Z,100717.50
2022-12-18T22:14:05.862Z,100718.16
2022-12-18T22:16:32.954Z,100723.38
2022-12-18T22:19:00.008Z,100713.06
2022-12-18T22:21:29.748Z,100721.66
2022-12-18T22:23:58.949Z,100715.06
2022-12-18T22:26:32.698Z,100714.25
2022-12-18T22:29:20.820Z,100714.38
2022-12-18T22:31:47.678Z,100721.22
2022-12-18T22:34:14.652Z,100716.47
2022-12-18T22:36:43.271Z,100727.53
2022-12-18T22:39:13.214Z,100716.59
2022-12-18T22:41:41.829Z,100714.50
2022-12-18T22:44:09.056Z,100712.19
2022-12-18T22:46:39.795Z,100703.78
2022-12-18T22:49:06.825Z,100707.22
2022-12-18T22:51:33.787Z,100698.31
2022-12-18T22:54:01.137Z,100689.44
2022-12-18T22:56:29.040Z,100694.19
2022-12-18T22:58:57.693Z,100685.31
2022-12-18T23:01:27.207Z,100685.31
2022-12-18T23:03:54.806Z,100684.47
2022-12-18T23:06:23.571Z,100698.34
2022-12-18T23:08:55.875Z,100690.38
2022-12-18T23:11:23.142Z,100700.09
2022-12-18T23:13:50.145Z,100686.13
2022-12-18T23:16:19.724Z,100685.28
2022-12-18T23:18:47.053Z,100682.97
2022-12-18T23:21:16.590Z,100676.28
2022-12-18T23:23:44.516Z,100678.72
2022-12-18T23:26:13.573Z,100693.25
2022-12-18T23:28:41.537Z,100701.81
2022-12-18T23:31:12.310Z,100703.66
2022-12-18T23:33:43.252Z,100705.50
2022-12-18T23:36:11.909Z,100707.13
2022-12-18T23:38:39.579Z,100717.06
2022-12-18T23:41:08.109Z,100723.53
2022-12-18T23:43:35.183Z,100719.59
2022-12-18T23:46:02.581Z,100720.44
2022-12-18T23:48:29.535Z,100725.06
2022-12-18T23:50:58.003Z,100720.09
2022-12-18T23:53:25.020Z,100724.56
2022-12-18T23:55:51.941Z,100729.44
2022-12-18T23:58:20.628Z,100722.16
